sensor_id;sensor_type;location;lat;lon;timestamp;P1;durP1;ratioP1;P2;durP2;ratioP2
6249;SDS011;3158;52.148;11.568;2023-02-08T00:01:27;41.97;;;11.60;;
6249;SDS011;3158;52.148;11.568;2023-02-08T00:06:28;50.97;;;13.83;;
6249;SDS011;3158;52.148;11.568;2023-02-08T00:11:30;28.33;;;11.77;;
6249;SDS011;3158;52.148;11.568;2023-02-08T00:16:31;45.47;;;14.33;;
6249;SDS011;3158;52.148;11.568;2023-02-08T00:21:32;45.83;;;14.40;;
6249;SDS011;3158;52.148;11.568;2023-02-08T00:26:33;41.70;;;12.23;;
6249;SDS011;3158;52.148;11.568;2023-02-08T00:31:34;45.43;;;14.90;;
6249;SDS011;3158;52.148;11.568;2023-02-08T00:36:37;45.33;;;12.37;;
6249;SDS011;3158;52.148;11.568;2023-02-08T00:41:39;40.37;;;14.97;;
6249;SDS011;3158;52.148;11.568;2023-02-08T00:46:40;43.23;;;14.13;;
6249;SDS011;3158;52.148;11.568;2023-02-08T00:51:41;41.23;;;11.70;;
6249;SDS011;3158;52.148;11.568;2023-02-08T00:56:42;36.87;;;11.97;;
6249;SDS011;3158;52.148;11.568;2023-02-08T01:01:43;37.50;;;11.57;;
6249;SDS011;3158;52.148;11.568;2023-02-08T01:06:44;37.47;;;12.07;;
6249;SDS011;3158;52.148;11.568;2023-02-08T01:11:45;18.37;;;6.80;;
6249;SDS011;3158;52.148;11.568;2023-02-08T01:16:46;44.00;;;12.53;;
6249;SDS011;3158;52.148;11.568;2023-02-08T01:21:48;52.87;;;13.27;;
6249;SDS011;3158;52.148;11.568;2023-02-08T01:26:49;42.90;;;12.47;;
6249;SDS011;3158;52.148;11.568;2023-02-08T01:31:51;44.20;;;13.17;;
6249;SDS011;3158;52.148;11.568;2023-02-08T01:36:52;38.07;;;11.60;;
6249;SDS011;3158;52.148;11.568;2023-02-08T01:41:53;43.10;;;14.43;;
6249;SDS011;3158;52.148;11.568;2023-02-08T01:46:55;41.73;;;13.17;;
6249;SDS011;3158;52.148;11.568;2023-02-08T01:57:00;28.53;;;11.40;;
6249;SDS011;3158;52.148;11.568;2023-02-08T02:02:01;36.47;;;12.63;;
6249;SDS011;3158;52.148;11.568;2023-02-08T02:07:02;43.57;;;12.23;;
6249;SDS011;3158;52.148;11.568;2023-02-08T02:12:05;47.40;;;13.70;;
6249;SDS011;3158;52.148;11.568;2023-02-08T02:17:07;30.93;;;11.10;;
6249;SDS011;3158;52.148;11.568;2023-02-08T02:33:19;54.70;;;12.03;;
6249;SDS011;3158;52.148;11.568;2023-02-08T02:43:50;41.10;;;13.30;;
6249;SDS011;3158;52.148;11.568;2023-02-08T02:54:21;33.50;;;12.00;;
6249;SDS011;3158;52.148;11.568;2023-02-08T02:59:24;37.57;;;12.20;;
6249;SDS011;3158;52.148;11.568;2023-02-08T03:09:59;34.47;;;12.30;;
6249;SDS011;3158;52.148;11.568;2023-02-08T03:20:10;28.23;;;10.70;;
6249;SDS011;3158;52.148;11.568;2023-02-08T03:25:16;53.63;;;10.77;;
6249;SDS011;3158;52.148;11.568;2023-02-08T03:30:24;31.80;;;10.40;;
6249;SDS011;3158;52.148;11.568;2023-02-08T03:35:30;36.77;;;12.30;;
6249;SDS011;3158;52.148;11.568;2023-02-08T03:40:39;39.03;;;14.57;;
6249;SDS011;3158;52.148;11.568;2023-02-08T03:45:43;39.10;;;13.40;;
6249;SDS011;3158;52.148;11.568;2023-02-08T03:50:48;48.93;;;14.13;;
6249;SDS011;3158;52.148;11.568;2023-02-08T03:55:53;38.93;;;12.97;;
6249;SDS011;3158;52.148;11.568;2023-02-08T04:01:01;47.27;;;12.10;;
6249;SDS011;3158;52.148;11.568;2023-02-08T04:06:04;40.90;;;13.83;;
6249;SDS011;3158;52.148;11.568;2023-02-08T04:11:05;32.40;;;11.90;;
6249;SDS011;3158;52.148;11.568;2023-02-08T04:16:08;26.47;;;8.13;;
6249;SDS011;3158;52.148;11.568;2023-02-08T04:21:09;41.67;;;14.00;;
6249;SDS011;3158;52.148;11.568;2023-02-08T04:26:10;26.87;;;9.40;;
6249;SDS011;3158;52.148;11.568;2023-02-08T04:31:11;28.47;;;8.87;;
6249;SDS011;3158;52.148;11.568;2023-02-08T04:36:12;26.93;;;10.97;;
6249;SDS011;3158;52.148;11.568;2023-02-08T04:41:13;42.40;;;11.83;;
6249;SDS011;3158;52.148;11.568;2023-02-08T04:46:14;29.73;;;11.27;;
6249;SDS011;3158;52.148;11.568;2023-02-08T04:51:16;41.27;;;13.33;;
6249;SDS011;3158;52.148;11.568;2023-02-08T04:56:17;37.77;;;12.63;;
6249;SDS011;3158;52.148;11.568;2023-02-08T05:01:18;21.60;;;9.80;;
6249;SDS011;3158;52.148;11.568;2023-02-08T05:06:19;33.83;;;11.53;;
6249;SDS011;3158;52.148;11.568;2023-02-08T05:11:21;35.07;;;11.87;;
6249;SDS011;3158;52.148;11.568;2023-02-08T05:16:22;35.77;;;11.67;;
6249;SDS011;3158;52.148;11.568;2023-02-08T05:21:23;36.80;;;10.40;;
6249;SDS011;3158;52.148;11.568;2023-02-08T05:26:24;28.87;;;10.70;;
6249;SDS011;3158;52.148;11.568;2023-02-08T05:31:25;36.80;;;13.87;;
6249;SDS011;3158;52.148;11.568;2023-02-08T05:36:26;33.50;;;11.27;;
6249;SDS011;3158;52.148;11.568;2023-02-08T05:41:27;35.67;;;11.43;;
6249;SDS011;3158;52.148;11.568;2023-02-08T05:46:29;30.47;;;11.87;;
6249;SDS011;3158;52.148;11.568;2023-02-08T05:51:30;26.77;;;10.17;;
6249;SDS011;3158;52.148;11.568;2023-02-08T05:56:31;28.67;;;11.77;;
6249;SDS011;3158;52.148;11.568;2023-02-08T06:01:32;33.40;;;13.00;;
6249;SDS011;3158;52.148;11.568;2023-02-08T06:06:33;34.23;;;11.90;;
6249;SDS011;3158;52.148;11.568;2023-02-08T06:11:34;36.17;;;11.40;;
6249;SDS011;3158;52.148;11.568;2023-02-08T06:16:35;28.67;;;10.70;;
6249;SDS011;3158;52.148;11.568;2023-02-08T06:21:36;30.87;;;11.50;;
6249;SDS011;3158;52.148;11.568;2023-02-08T06:26:38;20.87;;;9.83;;
6249;SDS011;3158;52.148;11.568;2023-02-08T06:31:39;25.57;;;10.63;;
6249;SDS011;3158;52.148;11.568;2023-02-08T06:36:40;33.60;;;13.10;;
6249;SDS011;3158;52.148;11.568;2023-02-08T06:41:41;26.97;;;10.93;;
6249;SDS011;3158;52.148;11.568;2023-02-08T06:46:43;31.90;;;11.37;;
6249;SDS011;3158;52.148;11.568;2023-02-08T06:51:44;33.60;;;10.90;;
6249;SDS011;3158;52.148;11.568;2023-02-08T06:56:45;31.50;;;11.90;;
6249;SDS011;3158;52.148;11.568;2023-02-08T07:01:46;14.60;;;6.87;;
6249;SDS011;3158;52.148;11.568;2023-02-08T07:06:47;32.77;;;10.43;;
6249;SDS011;3158;52.148;11.568;2023-02-08T07:11:51;36.03;;;12.60;;
6249;SDS011;3158;52.148;11.568;2023-02-08T07:16:52;38.37;;;11.77;;
6249;SDS011;3158;52.148;11.568;2023-02-08T07:21:54;24.77;;;10.70;;
6249;SDS011;3158;52.148;11.568;2023-02-08T07:26:55;38.73;;;12.00;;
6249;SDS011;3158;52.148;11.568;2023-02-08T07:31:57;27.73;;;11.40;;
6249;SDS011;3158;52.148;11.568;2023-02-08T07:36:58;39.17;;;14.83;;
6249;SDS011;3158;52.148;11.568;2023-02-08T07:41:59;31.00;;;12.80;;
6249;SDS011;3158;52.148;11.568;2023-02-08T07:47:06;26.43;;;9.60;;
6249;SDS011;3158;52.148;11.568;2023-02-08T07:52:07;20.67;;;10.53;;
6249;SDS011;3158;52.148;11.568;2023-02-08T07:57:09;33.07;;;11.27;;
6249;SDS011;3158;52.148;11.568;2023-02-08T08:02:10;34.63;;;12.40;;
6249;SDS011;3158;52.148;11.568;2023-02-08T08:07:11;36.30;;;13.30;;
6249;SDS011;3158;52.148;11.568;2023-02-08T08:12:12;33.03;;;13.50;;
6249;SDS011;3158;52.148;11.568;2023-02-08T08:17:13;40.30;;;15.50;;
6249;SDS011;3158;52.148;11.568;2023-02-08T08:22:14;44.73;;;15.50;;
6249;SDS011;3158;52.148;11.568;2023-02-08T08:27:15;45.63;;;13.77;;
6249;SDS011;3158;52.148;11.568;2023-02-08T08:32:16;30.47;;;15.23;;
6249;SDS011;3158;52.148;11.568;2023-02-08T08:37:18;51.20;;;16.93;;
6249;SDS011;3158;52.148;11.568;2023-02-08T08:42:19;27.30;;;9.93;;
6249;SDS011;3158;52.148;11.568;2023-02-08T08:47:20;43.87;;;15.13;;
6249;SDS011;3158;52.148;11.568;2023-02-08T08:52:21;33.10;;;12.00;;
6249;SDS011;3158;52.148;11.568;2023-02-08T08:57:23;39.37;;;14.87;;
6249;SDS011;3158;52.148;11.568;2023-02-08T09:02:24;40.83;;;14.70;;
6249;SDS011;3158;52.148;11.568;2023-02-08T09:07:25;54.10;;;17.10;;
6249;SDS011;3158;52.148;11.568;2023-02-08T09:12:26;47.10;;;16.10;;
6249;SDS011;3158;52.148;11.568;2023-02-08T09:17:27;44.47;;;17.47;;
6249;SDS011;3158;52.148;11.568;2023-02-08T09:22:28;42.83;;;14.67;;
6249;SDS011;3158;52.148;11.568;2023-02-08T09:27:29;44.30;;;17.70;;
6249;SDS011;3158;52.148;11.568;2023-02-08T09:32:31;23.47;;;12.00;;
6249;SDS011;3158;52.148;11.568;2023-02-08T09:37:37;48.90;;;17.97;;
6249;SDS011;3158;52.148;11.568;2023-02-08T09:42:41;33.33;;;10.20;;
6249;SDS011;3158;52.148;11.568;2023-02-08T09:47:46;40.53;;;17.03;;
6249;SDS011;3158;52.148;11.568;2023-02-08T09:58:11;56.93;;;19.87;;
6249;SDS011;3158;52.148;11.568;2023-02-08T10:03:21;64.13;;;21.93;;
6249;SDS011;3158;52.148;11.568;2023-02-08T10:08:23;54.03;;;19.65;;
6249;SDS011;3158;52.148;11.568;2023-02-08T10:39:29;27.30;;;12.88;;
6249;SDS011;3158;52.148;11.568;2023-02-08T10:44:34;47.83;;;17.15;;
6249;SDS011;3158;52.148;11.568;2023-02-08T10:54:39;48.50;;;19.42;;
6249;SDS011;3158;52.148;11.568;2023-02-08T10:59:47;39.90;;;17.15;;
6249;SDS011;3158;52.148;11.568;2023-02-08T11:04:56;38.38;;;17.27;;
6249;SDS011;3158;52.148;11.568;2023-02-08T11:15:21;36.85;;;16.42;;
6249;SDS011;3158;52.148;11.568;2023-02-08T11:20:33;37.47;;;16.60;;
6249;SDS011;3158;52.148;11.568;2023-02-08T11:25:37;33.90;;;13.73;;
6249;SDS011;3158;52.148;11.568;2023-02-08T11:30:39;38.20;;;17.75;;
6249;SDS011;3158;52.148;11.568;2023-02-08T11:35:40;43.78;;;18.58;;
6249;SDS011;3158;52.148;11.568;2023-02-08T11:40:42;41.97;;;16.48;;
6249;SDS011;3158;52.148;11.568;2023-02-08T11:45:45;46.97;;;19.50;;
6249;SDS011;3158;52.148;11.568;2023-02-08T11:50:49;40.75;;;19.02;;
6249;SDS011;3158;52.148;11.568;2023-02-08T11:56:09;45.03;;;18.58;;
6249;SDS011;3158;52.148;11.568;2023-02-08T12:01:16;37.33;;;17.33;;
6249;SDS011;3158;52.148;11.568;2023-02-08T12:06:35;33.13;;;16.30;;
6249;SDS011;3158;52.148;11.568;2023-02-08T12:11:40;39.38;;;16.65;;
6249;SDS011;3158;52.148;11.568;2023-02-08T12:16:48;36.35;;;16.52;;
6249;SDS011;3158;52.148;11.568;2023-02-08T12:21:53;39.40;;;17.13;;
6249;SDS011;3158;52.148;11.568;2023-02-08T12:27:16;51.40;;;19.20;;
6249;SDS011;3158;52.148;11.568;2023-02-08T12:32:40;40.08;;;18.35;;
6249;SDS011;3158;52.148;11.568;2023-02-08T12:37:50;38.35;;;17.00;;
6249;SDS011;3158;52.148;11.568;2023-02-08T12:48:36;41.00;;;18.40;;
6249;SDS011;3158;52.148;11.568;2023-02-08T12:53:41;40.60;;;19.33;;
6249;SDS011;3158;52.148;11.568;2023-02-08T12:58:44;40.88;;;19.45;;
6249;SDS011;3158;52.148;11.568;2023-02-08T13:03:58;30.45;;;13.85;;
6249;SDS011;3158;52.148;11.568;2023-02-08T13:09:01;40.88;;;19.45;;
6249;SDS011;3158;52.148;11.568;2023-02-08T13:14:10;37.63;;;14.93;;
6249;SDS011;3158;52.148;11.568;2023-02-08T13:29:27;35.30;;;16.35;;
6249;SDS011;3158;52.148;11.568;2023-02-08T13:39:32;37.10;;;18.63;;
6249;SDS011;3158;52.148;11.568;2023-02-08T13:44:35;34.42;;;18.52;;
6249;SDS011;3158;52.148;11.568;2023-02-08T13:49:42;38.28;;;19.58;;
6249;SDS011;3158;52.148;11.568;2023-02-08T13:54:43;37.70;;;18.10;;
6249;SDS011;3158;52.148;11.568;2023-02-08T14:00:18;34.42;;;15.98;;
6249;SDS011;3158;52.148;11.568;2023-02-08T14:05:32;42.60;;;17.98;;
6249;SDS011;3158;52.148;11.568;2023-02-08T14:10:41;29.25;;;13.45;;
6249;SDS011;3158;52.148;11.568;2023-02-08T14:15:45;32.45;;;16.58;;
6249;SDS011;3158;52.148;11.568;2023-02-08T14:20:54;37.17;;;14.70;;
6249;SDS011;3158;52.148;11.568;2023-02-08T14:25:57;36.75;;;15.40;;
6249;SDS011;3158;52.148;11.568;2023-02-08T14:31:02;23.48;;;10.98;;
6249;SDS011;3158;52.148;11.568;2023-02-08T14:36:05;37.13;;;15.93;;
6249;SDS011;3158;52.148;11.568;2023-02-08T14:41:07;33.58;;;15.55;;
6249;SDS011;3158;52.148;11.568;2023-02-08T14:51:30;35.97;;;15.07;;
6249;SDS011;3158;52.148;11.568;2023-02-08T14:56:32;33.55;;;15.45;;
6249;SDS011;3158;52.148;11.568;2023-02-08T15:01:39;34.75;;;16.35;;
6249;SDS011;3158;52.148;11.568;2023-02-08T15:17:35;30.88;;;12.25;;
6249;SDS011;3158;52.148;11.568;2023-02-08T15:22:38;43.15;;;16.95;;
6249;SDS011;3158;52.148;11.568;2023-02-08T15:27:45;33.67;;;16.73;;
6249;SDS011;3158;52.148;11.568;2023-02-08T15:32:47;36.85;;;16.40;;
6249;SDS011;3158;52.148;11.568;2023-02-08T15:37:48;42.85;;;17.77;;
6249;SDS011;3158;52.148;11.568;2023-02-08T15:42:50;39.63;;;17.58;;
6249;SDS011;3158;52.148;11.568;2023-02-08T15:47:51;45.67;;;19.55;;
6249;SDS011;3158;52.148;11.568;2023-02-08T15:53:00;35.05;;;16.73;;
6249;SDS011;3158;52.148;11.568;2023-02-08T15:58:03;37.83;;;17.52;;
6249;SDS011;3158;52.148;11.568;2023-02-08T16:03:12;36.45;;;16.95;;
6249;SDS011;3158;52.148;11.568;2023-02-08T16:08:20;79.90;;;27.02;;
6249;SDS011;3158;52.148;11.568;2023-02-08T16:13:22;48.38;;;19.50;;
6249;SDS011;3158;52.148;11.568;2023-02-08T16:18:41;47.03;;;20.40;;
6249;SDS011;3158;52.148;11.568;2023-02-08T16:23:50;36.78;;;16.45;;
6249;SDS011;3158;52.148;11.568;2023-02-08T16:29:01;34.50;;;16.88;;
6249;SDS011;3158;52.148;11.568;2023-02-08T16:34:04;33.90;;;16.65;;
6249;SDS011;3158;52.148;11.568;2023-02-08T16:44:18;31.95;;;16.73;;
6249;SDS011;3158;52.148;11.568;2023-02-08T16:49:22;33.03;;;15.57;;
6249;SDS011;3158;52.148;11.568;2023-02-08T16:54:23;41.75;;;17.10;;
6249;SDS011;3158;52.148;11.568;2023-02-08T16:59:26;36.35;;;16.30;;
6249;SDS011;3158;52.148;11.568;2023-02-08T17:04:27;34.33;;;15.68;;
6249;SDS011;3158;52.148;11.568;2023-02-08T17:09:28;36.15;;;16.02;;
6249;SDS011;3158;52.148;11.568;2023-02-08T17:14:29;37.22;;;15.32;;
6249;SDS011;3158;52.148;11.568;2023-02-08T17:19:30;29.77;;;15.70;;
6249;SDS011;3158;52.148;11.568;2023-02-08T17:24:31;36.03;;;16.75;;
6249;SDS011;3158;52.148;11.568;2023-02-08T17:29:33;36.97;;;14.97;;
6249;SDS011;3158;52.148;11.568;2023-02-08T17:34:34;30.77;;;15.30;;
6249;SDS011;3158;52.148;11.568;2023-02-08T17:39:35;32.70;;;15.10;;
6249;SDS011;3158;52.148;11.568;2023-02-08T17:44:37;32.05;;;16.70;;
6249;SDS011;3158;52.148;11.568;2023-02-08T17:49:38;35.83;;;16.83;;
6249;SDS011;3158;52.148;11.568;2023-02-08T17:54:39;39.80;;;16.67;;
6249;SDS011;3158;52.148;11.568;2023-02-08T17:59:40;33.83;;;16.07;;
6249;SDS011;3158;52.148;11.568;2023-02-08T18:04:41;36.83;;;17.33;;
6249;SDS011;3158;52.148;11.568;2023-02-08T18:09:42;37.37;;;17.47;;
6249;SDS011;3158;52.148;11.568;2023-02-08T18:14:43;39.40;;;15.80;;
6249;SDS011;3158;52.148;11.568;2023-02-08T18:19:44;37.23;;;17.13;;
6249;SDS011;3158;52.148;11.568;2023-02-08T18:24:45;35.80;;;16.33;;
6249;SDS011;3158;52.148;11.568;2023-02-08T18:29:48;56.00;;;25.23;;
6249;SDS011;3158;52.148;11.568;2023-02-08T18:34:49;48.17;;;18.73;;
6249;SDS011;3158;52.148;11.568;2023-02-08T18:39:50;40.60;;;19.20;;
6249;SDS011;3158;52.148;11.568;2023-02-08T18:44:51;47.00;;;17.93;;
6249;SDS011;3158;52.148;11.568;2023-02-08T18:49:53;45.30;;;21.70;;
6249;SDS011;3158;52.148;11.568;2023-02-08T18:54:54;47.37;;;19.80;;
6249;SDS011;3158;52.148;11.568;2023-02-08T18:59:55;52.00;;;23.90;;
6249;SDS011;3158;52.148;11.568;2023-02-08T19:04:56;37.97;;;17.83;;
6249;SDS011;3158;52.148;11.568;2023-02-08T19:09:58;42.80;;;18.93;;
6249;SDS011;3158;52.148;11.568;2023-02-08T19:14:59;25.73;;;13.97;;
6249;SDS011;3158;52.148;11.568;2023-02-08T19:20:00;34.37;;;16.70;;
6249;SDS011;3158;52.148;11.568;2023-02-08T19:25:02;38.20;;;14.53;;
6249;SDS011;3158;52.148;11.568;2023-02-08T19:30:03;43.57;;;15.93;;
6249;SDS011;3158;52.148;11.568;2023-02-08T19:35:04;30.03;;;11.20;;
6249;SDS011;3158;52.148;11.568;2023-02-08T19:40:06;34.30;;;14.33;;
6249;SDS011;3158;52.148;11.568;2023-02-08T19:45:07;31.50;;;14.83;;
6249;SDS011;3158;52.148;11.568;2023-02-08T19:50:08;21.17;;;10.27;;
6249;SDS011;3158;52.148;11.568;2023-02-08T19:55:09;29.73;;;14.43;;
6249;SDS011;3158;52.148;11.568;2023-02-08T20:00:11;30.20;;;14.70;;
6249;SDS011;3158;52.148;11.568;2023-02-08T20:05:15;32.77;;;14.93;;
6249;SDS011;3158;52.148;11.568;2023-02-08T20:10:16;32.97;;;12.13;;
6249;SDS011;3158;52.148;11.568;2023-02-08T20:15:17;27.53;;;11.93;;
6249;SDS011;3158;52.148;11.568;2023-02-08T20:20:18;26.23;;;10.27;;
6249;SDS011;3158;52.148;11.568;2023-02-08T20:25:20;14.77;;;7.83;;
6249;SDS011;3158;52.148;11.568;2023-02-08T20:30:21;38.17;;;13.37;;
6249;SDS011;3158;52.148;11.568;2023-02-08T20:35:24;18.03;;;9.30;;
6249;SDS011;3158;52.148;11.568;2023-02-08T20:40:25;26.73;;;11.70;;
6249;SDS011;3158;52.148;11.568;2023-02-08T20:45:26;30.20;;;12.20;;
6249;SDS011;3158;52.148;11.568;2023-02-08T20:50:27;30.53;;;12.87;;
6249;SDS011;3158;52.148;11.568;2023-02-08T20:55:30;33.33;;;13.97;;
6249;SDS011;3158;52.148;11.568;2023-02-08T21:00:31;25.37;;;12.67;;
6249;SDS011;3158;52.148;11.568;2023-02-08T21:05:32;21.53;;;8.13;;
6249;SDS011;3158;52.148;11.568;2023-02-08T21:10:36;23.83;;;10.13;;
6249;SDS011;3158;52.148;11.568;2023-02-08T21:15:43;29.53;;;11.20;;
6249;SDS011;3158;52.148;11.568;2023-02-08T21:20:45;32.50;;;13.17;;
6249;SDS011;3158;52.148;11.568;2023-02-08T21:25:46;27.40;;;13.13;;
6249;SDS011;3158;52.148;11.568;2023-02-08T21:30:57;32.90;;;12.47;;
6249;SDS011;3158;52.148;11.568;2023-02-08T21:36:05;39.17;;;13.27;;
6249;SDS011;3158;52.148;11.568;2023-02-08T21:41:11;34.37;;;14.53;;
6249;SDS011;3158;52.148;11.568;2023-02-08T21:46:13;34.23;;;13.17;;
6249;SDS011;3158;52.148;11.568;2023-02-08T21:51:14;44.27;;;13.57;;
6249;SDS011;3158;52.148;11.568;2023-02-08T21:56:34;31.07;;;14.10;;
6249;SDS011;3158;52.148;11.568;2023-02-08T22:01:35;26.80;;;12.53;;
6249;SDS011;3158;52.148;11.568;2023-02-08T22:06:36;30.60;;;13.13;;
6249;SDS011;3158;52.148;11.568;2023-02-08T22:11:49;24.63;;;9.60;;
6249;SDS011;3158;52.148;11.568;2023-02-08T22:16:51;31.47;;;13.60;;
6249;SDS011;3158;52.148;11.568;2023-02-08T22:21:52;23.77;;;10.60;;
6249;SDS011;3158;52.148;11.568;2023-02-08T22:26:53;29.30;;;13.17;;
6249;SDS011;3158;52.148;11.568;2023-02-08T22:31:54;26.63;;;11.30;;
6249;SDS011;3158;52.148;11.568;2023-02-08T22:36:55;13.63;;;6.00;;
6249;SDS011;3158;52.148;11.568;2023-02-08T22:41:57;27.23;;;11.37;;
6249;SDS011;3158;52.148;11.568;2023-02-08T22:46:58;29.03;;;11.83;;
6249;SDS011;3158;52.148;11.568;2023-02-08T22:52:00;29.57;;;11.97;;
6249;SDS011;3158;52.148;11.568;2023-02-08T22:57:02;31.03;;;12.20;;
6249;SDS011;3158;52.148;11.568;2023-02-08T23:02:03;10.23;;;6.60;;
6249;SDS011;3158;52.148;11.568;2023-02-08T23:07:04;23.03;;;10.83;;
6249;SDS011;3158;52.148;11.568;2023-02-08T23:12:05;33.67;;;13.27;;
6249;SDS011;3158;52.148;11.568;2023-02-08T23:17:07;27.80;;;10.70;;
6249;SDS011;3158;52.148;11.568;2023-02-08T23:22:08;27.27;;;10.50;;
6249;SDS011;3158;52.148;11.568;2023-02-08T23:27:09;26.07;;;11.07;;
6249;SDS011;3158;52.148;11.568;2023-02-08T23:32:10;23.27;;;10.73;;
6249;SDS011;3158;52.148;11.568;2023-02-08T23:37:11;33.10;;;13.20;;
6249;SDS011;3158;52.148;11.568;2023-02-08T23:42:12;28.23;;;10.90;;
6249;SDS011;3158;52.148;11.568;2023-02-08T23:47:26;28.53;;;11.60;;
6249;SDS011;3158;52.148;11.568;2023-02-08T23:52:28;31.47;;;11.80;;
6249;SDS011;3158;52.148;11.568;2023-02-08T23:57:32;27.60;;;11.63;;
